sensor_id;sensor_type;location;lat;lon;timestamp;P1;durP1;ratioP1;P2;durP2;ratioP2
75798;SDS011;65035;44.726;37.764;2023-03-01T00:00:07;2.33;;;2.13;;
75798;SDS011;65035;44.726;37.764;2023-03-01T00:01:17;2.05;;;0.88;;
75798;SDS011;65035;44.726;37.764;2023-03-01T00:02:31;2.42;;;1.98;;
75798;SDS011;65035;44.726;37.764;2023-03-01T00:03:37;2.42;;;2.22;;
75798;SDS011;65035;44.726;37.764;2023-03-01T00:04:41;2.22;;;2.03;;
75798;SDS011;65035;44.726;37.764;2023-03-01T00:05:46;2.10;;;1.90;;
75798;SDS011;65035;44.726;37.764;2023-03-01T00:06:52;2.25;;;2.05;;
75798;SDS011;65035;44.726;37.764;2023-03-01T00:07:56;3.30;;;3.10;;
75798;SDS011;65035;44.726;37.764;2023-03-01T00:09:02;2.65;;;2.45;;
75798;SDS011;65035;44.726;37.764;2023-03-01T00:10:07;1.73;;;0.50;;
75798;SDS011;65035;44.726;37.764;2023-03-01T00:12:21;2.38;;;2.17;;
75798;SDS011;65035;44.726;37.764;2023-03-01T00:13:26;2.28;;;2.08;;
75798;SDS011;65035;44.726;37.764;2023-03-01T00:14:30;2.47;;;2.28;;
75798;SDS011;65035;44.726;37.764;2023-03-01T00:15:39;2.28;;;2.08;;
75798;SDS011;65035;44.726;37.764;2023-03-01T00:16:51;2.47;;;2.28;;
75798;SDS011;65035;44.726;37.764;2023-03-01T00:17:55;2.58;;;2.38;;
75798;SDS011;65035;44.726;37.764;2023-03-01T00:19:00;2.45;;;1.08;;
75798;SDS011;65035;44.726;37.764;2023-03-01T00:20:04;3.10;;;2.80;;
75798;SDS011;65035;44.726;37.764;2023-03-01T00:21:14;2.47;;;2.28;;
75798;SDS011;65035;44.726;37.764;2023-03-01T00:22:19;2.92;;;2.67;;
75798;SDS011;65035;44.726;37.764;2023-03-01T00:23:23;2.13;;;1.92;;
75798;SDS011;65035;44.726;37.764;2023-03-01T00:24:26;2.17;;;1.98;;
75798;SDS011;65035;44.726;37.764;2023-03-01T00:25:31;2.42;;;2.17;;
75798;SDS011;65035;44.726;37.764;2023-03-01T00:26:40;2.42;;;2.20;;
75798;SDS011;65035;44.726;37.764;2023-03-01T00:27:44;2.35;;;0.80;;
75798;SDS011;65035;44.726;37.764;2023-03-01T00:28:51;3.15;;;2.85;;
75798;SDS011;65035;44.726;37.764;2023-03-01T00:29:56;2.65;;;2.45;;
75798;SDS011;65035;44.726;37.764;2023-03-01T00:31:04;1.60;;;0.80;;
75798;SDS011;65035;44.726;37.764;2023-03-01T00:32:09;2.28;;;2.08;;
75798;SDS011;65035;44.726;37.764;2023-03-01T00:33:14;2.30;;;2.10;;
75798;SDS011;65035;44.726;37.764;2023-03-01T00:34:19;1.63;;;0.63;;
75798;SDS011;65035;44.726;37.764;2023-03-01T00:35:22;3.15;;;2.80;;
75798;SDS011;65035;44.726;37.764;2023-03-01T00:36:27;2.47;;;2.05;;
75798;SDS011;65035;44.726;37.764;2023-03-01T00:37:34;2.25;;;2.03;;
75798;SDS011;65035;44.726;37.764;2023-03-01T00:38:40;2.42;;;2.22;;
75798;SDS011;65035;44.726;37.764;2023-03-01T00:39:46;2.42;;;1.98;;
75798;SDS011;65035;44.726;37.764;2023-03-01T00:40:51;2.42;;;2.17;;
75798;SDS011;65035;44.726;37.764;2023-03-01T00:41:56;2.70;;;2.15;;
75798;SDS011;65035;44.726;37.764;2023-03-01T00:43:00;2.05;;;1.77;;
75798;SDS011;65035;44.726;37.764;2023-03-01T00:44:06;2.80;;;2.22;;
75798;SDS011;65035;44.726;37.764;2023-03-01T00:45:10;2.10;;;1.83;;
75798;SDS011;65035;44.726;37.764;2023-03-01T00:46:18;2.53;;;2.33;;
75798;SDS011;65035;44.726;37.764;2023-03-01T00:47:24;2.80;;;2.50;;
75798;SDS011;65035;44.726;37.764;2023-03-01T00:48:29;2.05;;;1.85;;
75798;SDS011;65035;44.726;37.764;2023-03-01T00:49:34;1.77;;;0.70;;
75798;SDS011;65035;44.726;37.764;2023-03-01T00:50:38;2.22;;;2.03;;
75798;SDS011;65035;44.726;37.764;2023-03-01T00:51:41;2.25;;;2.05;;
75798;SDS011;65035;44.726;37.764;2023-03-01T00:52:46;2.53;;;2.25;;
75798;SDS011;65035;44.726;37.764;2023-03-01T00:53:50;2.70;;;2.47;;
75798;SDS011;65035;44.726;37.764;2023-03-01T00:54:55;3.05;;;2.75;;
75798;SDS011;65035;44.726;37.764;2023-03-01T00:56:01;1.85;;;0.80;;
75798;SDS011;65035;44.726;37.764;2023-03-01T00:57:06;2.10;;;1.92;;
75798;SDS011;65035;44.726;37.764;2023-03-01T00:58:11;2.15;;;1.88;;
75798;SDS011;65035;44.726;37.764;2023-03-01T00:59:16;2.03;;;1.77;;
75798;SDS011;65035;44.726;37.764;2023-03-01T01:00:20;1.83;;;0.50;;
75798;SDS011;65035;44.726;37.764;2023-03-01T01:01:25;3.10;;;2.85;;
75798;SDS011;65035;44.726;37.764;2023-03-01T01:02:35;2.33;;;2.13;;
75798;SDS011;65035;44.726;37.764;2023-03-01T01:03:39;2.28;;;1.73;;
75798;SDS011;65035;44.726;37.764;2023-03-01T01:04:45;2.70;;;2.28;;
75798;SDS011;65035;44.726;37.764;2023-03-01T01:05:49;2.58;;;2.22;;
75798;SDS011;65035;44.726;37.764;2023-03-01T01:06:54;2.22;;;1.92;;
75798;SDS011;65035;44.726;37.764;2023-03-01T01:07:59;1.90;;;1.67;;
75798;SDS011;65035;44.726;37.764;2023-03-01T01:09:04;2.28;;;2.03;;
75798;SDS011;65035;44.726;37.764;2023-03-01T01:10:10;2.55;;;2.35;;
75798;SDS011;65035;44.726;37.764;2023-03-01T01:11:20;2.78;;;2.47;;
75798;SDS011;65035;44.726;37.764;2023-03-01T01:12:27;2.40;;;2.20;;
75798;SDS011;65035;44.726;37.764;2023-03-01T01:13:31;3.25;;;2.88;;
75798;SDS011;65035;44.726;37.764;2023-03-01T01:14:36;2.67;;;2.13;;
75798;SDS011;65035;44.726;37.764;2023-03-01T01:15:40;2.50;;;1.80;;
75798;SDS011;65035;44.726;37.764;2023-03-01T01:16:45;2.40;;;2.20;;
75798;SDS011;65035;44.726;37.764;2023-03-01T01:17:51;2.25;;;2.05;;
75798;SDS011;65035;44.726;37.764;2023-03-01T01:18:56;2.20;;;2.00;;
75798;SDS011;65035;44.726;37.764;2023-03-01T01:20:02;1.95;;;1.63;;
75798;SDS011;65035;44.726;37.764;2023-03-01T01:21:07;2.05;;;1.95;;
75798;SDS011;65035;44.726;37.764;2023-03-01T01:22:13;2.17;;;1.98;;
75798;SDS011;65035;44.726;37.764;2023-03-01T01:23:16;2.00;;;1.80;;
75798;SDS011;65035;44.726;37.764;2023-03-01T01:24:20;2.85;;;2.65;;
75798;SDS011;65035;44.726;37.764;2023-03-01T01:25:25;2.70;;;2.50;;
75798;SDS011;65035;44.726;37.764;2023-03-01T01:26:31;2.30;;;2.10;;
75798;SDS011;65035;44.726;37.764;2023-03-01T01:27:37;2.72;;;2.53;;
75798;SDS011;65035;44.726;37.764;2023-03-01T01:28:41;2.20;;;1.88;;
75798;SDS011;65035;44.726;37.764;2023-03-01T01:29:46;2.45;;;2.25;;
75798;SDS011;65035;44.726;37.764;2023-03-01T01:30:49;2.70;;;2.33;;
75798;SDS011;65035;44.726;37.764;2023-03-01T01:31:51;2.70;;;2.50;;
75798;SDS011;65035;44.726;37.764;2023-03-01T01:32:55;2.17;;;1.98;;
75798;SDS011;65035;44.726;37.764;2023-03-01T01:34:00;2.78;;;2.15;;
75798;SDS011;65035;44.726;37.764;2023-03-01T01:35:07;1.98;;;1.80;;
75798;SDS011;65035;44.726;37.764;2023-03-01T01:36:11;2.17;;;1.17;;
75798;SDS011;65035;44.726;37.764;2023-03-01T01:37:14;3.00;;;2.80;;
75798;SDS011;65035;44.726;37.764;2023-03-01T01:38:20;2.38;;;2.17;;
75798;SDS011;65035;44.726;37.764;2023-03-01T01:39:23;2.03;;;1.83;;
75798;SDS011;65035;44.726;37.764;2023-03-01T01:40:26;2.35;;;2.15;;
75798;SDS011;65035;44.726;37.764;2023-03-01T01:41:30;2.50;;;2.15;;
75798;SDS011;65035;44.726;37.764;2023-03-01T01:42:35;2.17;;;1.52;;
75798;SDS011;65035;44.726;37.764;2023-03-01T01:43:42;2.53;;;1.80;;
75798;SDS011;65035;44.726;37.764;2023-03-01T01:46:30;2.90;;;2.70;;
75798;SDS011;65035;44.726;37.764;2023-03-01T01:47:36;3.15;;;2.70;;
75798;SDS011;65035;44.726;37.764;2023-03-01T01:48:41;3.33;;;3.13;;
75798;SDS011;65035;44.726;37.764;2023-03-01T01:49:50;3.03;;;2.42;;
75798;SDS011;65035;44.726;37.764;2023-03-01T01:50:59;2.60;;;2.40;;
75798;SDS011;65035;44.726;37.764;2023-03-01T01:52:19;2.58;;;2.22;;
75798;SDS011;65035;44.726;37.764;2023-03-01T01:53:32;2.42;;;1.98;;
75798;SDS011;65035;44.726;37.764;2023-03-01T01:54:42;2.58;;;2.33;;
75798;SDS011;65035;44.726;37.764;2023-03-01T01:55:56;2.30;;;2.03;;
75798;SDS011;65035;44.726;37.764;2023-03-01T01:57:07;2.33;;;2.13;;
75798;SDS011;65035;44.726;37.764;2023-03-01T01:58:18;2.80;;;2.60;;
75798;SDS011;65035;44.726;37.764;2023-03-01T01:59:23;2.38;;;2.17;;
75798;SDS011;65035;44.726;37.764;2023-03-01T02:00:30;2.60;;;2.25;;
75798;SDS011;65035;44.726;37.764;2023-03-01T02:01:35;2.47;;;2.22;;
75798;SDS011;65035;44.726;37.764;2023-03-01T02:02:39;2.42;;;2.22;;
75798;SDS011;65035;44.726;37.764;2023-03-01T02:03:45;2.15;;;1.77;;
75798;SDS011;65035;44.726;37.764;2023-03-01T02:04:53;2.30;;;2.10;;
75798;SDS011;65035;44.726;37.764;2023-03-01T02:06:12;2.70;;;2.50;;
75798;SDS011;65035;44.726;37.764;2023-03-01T02:07:22;2.00;;;1.80;;
75798;SDS011;65035;44.726;37.764;2023-03-01T02:08:28;2.88;;;2.42;;
75798;SDS011;65035;44.726;37.764;2023-03-01T02:09:35;2.20;;;2.00;;
75798;SDS011;65035;44.726;37.764;2023-03-01T02:11:44;1.63;;;0.50;;
75798;SDS011;65035;44.726;37.764;2023-03-01T02:12:49;3.03;;;2.72;;
75798;SDS011;65035;44.726;37.764;2023-03-01T02:13:55;2.08;;;1.95;;
75798;SDS011;65035;44.726;37.764;2023-03-01T02:15:00;2.35;;;2.15;;
75798;SDS011;65035;44.726;37.764;2023-03-01T02:16:08;2.80;;;2.45;;
75798;SDS011;65035;44.726;37.764;2023-03-01T02:17:12;2.42;;;2.22;;
75798;SDS011;65035;44.726;37.764;2023-03-01T02:18:21;2.00;;;1.40;;
75798;SDS011;65035;44.726;37.764;2023-03-01T02:19:35;2.40;;;2.10;;
75798;SDS011;65035;44.726;37.764;2023-03-01T02:22:33;2.38;;;1.92;;
75798;SDS011;65035;44.726;37.764;2023-03-01T02:23:40;2.28;;;1.85;;
75798;SDS011;65035;44.726;37.764;2023-03-01T02:27:19;2.40;;;2.20;;
75798;SDS011;65035;44.726;37.764;2023-03-01T02:28:31;2.60;;;2.40;;
75798;SDS011;65035;44.726;37.764;2023-03-01T02:29:37;2.15;;;1.95;;
75798;SDS011;65035;44.726;37.764;2023-03-01T02:30:44;2.60;;;2.40;;
75798;SDS011;65035;44.726;37.764;2023-03-01T02:32:09;2.22;;;1.85;;
75798;SDS011;65035;44.726;37.764;2023-03-01T02:33:16;2.40;;;2.20;;
75798;SDS011;65035;44.726;37.764;2023-03-01T02:34:22;1.92;;;1.65;;
75798;SDS011;65035;44.726;37.764;2023-03-01T02:35:29;2.13;;;1.92;;
75798;SDS011;65035;44.726;37.764;2023-03-01T02:36:45;2.17;;;1.90;;
75798;SDS011;65035;44.726;37.764;2023-03-01T02:38:13;2.47;;;2.28;;
75798;SDS011;65035;44.726;37.764;2023-03-01T02:39:18;2.33;;;2.13;;
75798;SDS011;65035;44.726;37.764;2023-03-01T02:40:28;2.33;;;2.08;;
75798;SDS011;65035;44.726;37.764;2023-03-01T02:41:35;2.08;;;1.98;;
75798;SDS011;65035;44.726;37.764;2023-03-01T02:42:52;2.75;;;2.55;;
75798;SDS011;65035;44.726;37.764;2023-03-01T02:44:00;2.10;;;1.90;;
75798;SDS011;65035;44.726;37.764;2023-03-01T02:45:05;2.28;;;1.67;;
75798;SDS011;65035;44.726;37.764;2023-03-01T02:46:19;3.20;;;2.92;;
75798;SDS011;65035;44.726;37.764;2023-03-01T02:47:26;2.65;;;2.45;;
75798;SDS011;65035;44.726;37.764;2023-03-01T02:48:42;3.35;;;3.15;;
75798;SDS011;65035;44.726;37.764;2023-03-01T02:49:49;2.50;;;2.13;;
75798;SDS011;65035;44.726;37.764;2023-03-01T02:53:39;2.50;;;2.22;;
75798;SDS011;65035;44.726;37.764;2023-03-01T02:54:58;2.58;;;2.38;;
75798;SDS011;65035;44.726;37.764;2023-03-01T02:56:08;2.10;;;1.02;;
75798;SDS011;65035;44.726;37.764;2023-03-01T02:57:16;2.35;;;2.15;;
75798;SDS011;65035;44.726;37.764;2023-03-01T02:58:22;2.50;;;2.20;;
75798;SDS011;65035;44.726;37.764;2023-03-01T02:59:29;2.05;;;1.85;;
75798;SDS011;65035;44.726;37.764;2023-03-01T03:00:43;2.33;;;2.08;;
75798;SDS011;65035;44.726;37.764;2023-03-01T03:01:53;2.60;;;2.40;;
75798;SDS011;65035;44.726;37.764;2023-03-01T03:02:56;2.65;;;2.20;;
75798;SDS011;65035;44.726;37.764;2023-03-01T03:04:05;2.88;;;2.67;;
75798;SDS011;65035;44.726;37.764;2023-03-01T03:05:15;2.28;;;2.08;;
75798;SDS011;65035;44.726;37.764;2023-03-01T03:06:20;3.38;;;3.17;;
75798;SDS011;65035;44.726;37.764;2023-03-01T03:07:24;2.38;;;2.20;;
75798;SDS011;65035;44.726;37.764;2023-03-01T03:08:29;2.45;;;2.25;;
75798;SDS011;65035;44.726;37.764;2023-03-01T03:09:33;1.77;;;0.45;;
75798;SDS011;65035;44.726;37.764;2023-03-01T03:10:38;2.35;;;1.90;;
75798;SDS011;65035;44.726;37.764;2023-03-01T03:11:44;2.35;;;2.15;;
75798;SDS011;65035;44.726;37.764;2023-03-01T03:12:49;2.75;;;2.55;;
75798;SDS011;65035;44.726;37.764;2023-03-01T03:13:59;2.10;;;1.90;;
75798;SDS011;65035;44.726;37.764;2023-03-01T03:15:04;2.25;;;2.05;;
75798;SDS011;65035;44.726;37.764;2023-03-01T03:16:13;2.35;;;2.13;;
75798;SDS011;65035;44.726;37.764;2023-03-01T03:17:18;2.53;;;2.33;;
75798;SDS011;65035;44.726;37.764;2023-03-01T03:18:22;1.90;;;1.65;;
75798;SDS011;65035;44.726;37.764;2023-03-01T03:19:29;2.38;;;2.17;;
75798;SDS011;65035;44.726;37.764;2023-03-01T03:20:33;2.50;;;2.30;;
75798;SDS011;65035;44.726;37.764;2023-03-01T03:21:39;2.85;;;2.65;;
75798;SDS011;65035;44.726;37.764;2023-03-01T03:22:44;2.45;;;2.25;;
75798;SDS011;65035;44.726;37.764;2023-03-01T03:23:52;2.63;;;2.10;;
75798;SDS011;65035;44.726;37.764;2023-03-01T03:24:55;3.03;;;2.83;;
75798;SDS011;65035;44.726;37.764;2023-03-01T03:25:58;2.45;;;2.25;;
75798;SDS011;65035;44.726;37.764;2023-03-01T03:27:04;1.63;;;0.85;;
75798;SDS011;65035;44.726;37.764;2023-03-01T03:28:09;2.45;;;2.25;;
75798;SDS011;65035;44.726;37.764;2023-03-01T03:29:14;2.38;;;2.17;;
75798;SDS011;65035;44.726;37.764;2023-03-01T03:30:18;2.17;;;1.85;;
75798;SDS011;65035;44.726;37.764;2023-03-01T03:31:25;2.83;;;2.63;;
75798;SDS011;65035;44.726;37.764;2023-03-01T03:32:30;2.75;;;2.55;;
75798;SDS011;65035;44.726;37.764;2023-03-01T03:33:35;2.83;;;2.63;;
75798;SDS011;65035;44.726;37.764;2023-03-01T03:34:38;2.70;;;2.33;;
75798;SDS011;65035;44.726;37.764;2023-03-01T03:35:45;2.38;;;2.10;;
75798;SDS011;65035;44.726;37.764;2023-03-01T03:36:54;2.25;;;2.05;;
75798;SDS011;65035;44.726;37.764;2023-03-01T03:38:04;2.08;;;1.88;;
75798;SDS011;65035;44.726;37.764;2023-03-01T03:40:14;2.58;;;2.38;;
75798;SDS011;65035;44.726;37.764;2023-03-01T03:41:19;2.70;;;2.50;;
75798;SDS011;65035;44.726;37.764;2023-03-01T03:42:24;2.22;;;1.98;;
75798;SDS011;65035;44.726;37.764;2023-03-01T03:43:27;2.45;;;2.10;;
75798;SDS011;65035;44.726;37.764;2023-03-01T03:44:34;1.95;;;1.85;;
75798;SDS011;65035;44.726;37.764;2023-03-01T03:45:41;2.15;;;1.80;;
75798;SDS011;65035;44.726;37.764;2023-03-01T03:46:48;2.92;;;2.72;;
75798;SDS011;65035;44.726;37.764;2023-03-01T03:47:52;2.33;;;2.13;;
75798;SDS011;65035;44.726;37.764;2023-03-01T03:48:56;2.70;;;2.50;;
75798;SDS011;65035;44.726;37.764;2023-03-01T03:50:02;2.70;;;2.00;;
75798;SDS011;65035;44.726;37.764;2023-03-01T03:51:09;2.47;;;2.28;;
75798;SDS011;65035;44.726;37.764;2023-03-01T03:52:14;3.10;;;2.25;;
75798;SDS011;65035;44.726;37.764;2023-03-01T03:53:20;2.60;;;2.40;;
75798;SDS011;65035;44.726;37.764;2023-03-01T03:54:26;2.38;;;2.17;;
75798;SDS011;65035;44.726;37.764;2023-03-01T03:55:30;3.47;;;3.17;;
75798;SDS011;65035;44.726;37.764;2023-03-01T03:56:37;2.88;;;2.28;;
75798;SDS011;65035;44.726;37.764;2023-03-01T03:57:42;3.47;;;3.28;;
75798;SDS011;65035;44.726;37.764;2023-03-01T03:58:47;2.67;;;2.42;;
75798;SDS011;65035;44.726;37.764;2023-03-01T03:59:51;3.70;;;3.35;;
75798;SDS011;65035;44.726;37.764;2023-03-01T04:00:55;3.50;;;3.20;;
75798;SDS011;65035;44.726;37.764;2023-03-01T04:02:00;3.33;;;2.97;;
75798;SDS011;65035;44.726;37.764;2023-03-01T04:03:05;3.80;;;2.78;;
75798;SDS011;65035;44.726;37.764;2023-03-01T04:04:10;2.80;;;2.38;;
75798;SDS011;65035;44.726;37.764;2023-03-01T04:05:17;3.67;;;2.33;;
75798;SDS011;65035;44.726;37.764;2023-03-01T04:06:22;2.60;;;2.40;;
75798;SDS011;65035;44.726;37.764;2023-03-01T04:07:27;2.53;;;2.33;;
75798;SDS011;65035;44.726;37.764;2023-03-01T04:08:32;3.30;;;3.00;;
75798;SDS011;65035;44.726;37.764;2023-03-01T04:09:35;4.03;;;3.63;;
75798;SDS011;65035;44.726;37.764;2023-03-01T04:10:41;3.35;;;2.80;;
75798;SDS011;65035;44.726;37.764;2023-03-01T04:11:51;3.70;;;2.50;;
75798;SDS011;65035;44.726;37.764;2023-03-01T04:12:56;4.68;;;3.10;;
75798;SDS011;65035;44.726;37.764;2023-03-01T04:13:59;12.13;;;4.57;;
75798;SDS011;65035;44.726;37.764;2023-03-01T04:15:03;15.20;;;5.50;;
75798;SDS011;65035;44.726;37.764;2023-03-01T04:16:17;14.40;;;5.18;;
75798;SDS011;65035;44.726;37.764;2023-03-01T04:17:20;12.65;;;4.82;;
75798;SDS011;65035;44.726;37.764;2023-03-01T04:18:25;15.93;;;5.15;;
75798;SDS011;65035;44.726;37.764;2023-03-01T04:19:31;17.85;;;6.03;;
75798;SDS011;65035;44.726;37.764;2023-03-01T04:20:38;13.80;;;5.68;;
75798;SDS011;65035;44.726;37.764;2023-03-01T04:21:42;14.80;;;3.83;;
75798;SDS011;65035;44.726;37.764;2023-03-01T04:22:45;9.93;;;4.80;;
75798;SDS011;65035;44.726;37.764;2023-03-01T04:24:55;13.80;;;5.45;;
75798;SDS011;65035;44.726;37.764;2023-03-01T04:25:59;10.10;;;4.65;;
75798;SDS011;65035;44.726;37.764;2023-03-01T04:27:03;10.43;;;4.18;;
75798;SDS011;65035;44.726;37.764;2023-03-01T04:28:09;13.32;;;6.20;;
75798;SDS011;65035;44.726;37.764;2023-03-01T04:29:13;13.20;;;5.38;;
75798;SDS011;65035;44.726;37.764;2023-03-01T04:30:17;16.05;;;5.60;;
75798;SDS011;65035;44.726;37.764;2023-03-01T04:31:20;11.38;;;5.07;;
75798;SDS011;65035;44.726;37.764;2023-03-01T04:32:26;11.63;;;4.63;;
75798;SDS011;65035;44.726;37.764;2023-03-01T04:33:31;12.23;;;3.45;;
75798;SDS011;65035;44.726;37.764;2023-03-01T04:34:35;13.70;;;5.20;;
75798;SDS011;65035;44.726;37.764;2023-03-01T04:35:40;13.82;;;5.57;;
75798;SDS011;65035;44.726;37.764;2023-03-01T04:36:44;10.68;;;4.28;;
75798;SDS011;65035;44.726;37.764;2023-03-01T04:37:49;14.07;;;4.95;;
75798;SDS011;65035;44.726;37.764;2023-03-01T04:38:54;10.40;;;5.47;;
75798;SDS011;65035;44.726;37.764;2023-03-01T04:40:01;11.70;;;3.50;;
75798;SDS011;65035;44.726;37.764;2023-03-01T04:41:17;15.70;;;5.32;;
75798;SDS011;65035;44.726;37.764;2023-03-01T04:42:22;14.05;;;5.45;;
75798;SDS011;65035;44.726;37.764;2023-03-01T04:43:26;12.20;;;6.65;;
75798;SDS011;65035;44.726;37.764;2023-03-01T04:44:31;11.23;;;4.22;;
75798;SDS011;65035;44.726;37.764;2023-03-01T04:45:34;13.15;;;5.80;;
75798;SDS011;65035;44.726;37.764;2023-03-01T04:46:38;11.07;;;4.82;;
75798;SDS011;65035;44.726;37.764;2023-03-01T04:47:43;11.20;;;3.53;;
75798;SDS011;65035;44.726;37.764;2023-03-01T04:48:49;14.02;;;4.75;;
75798;SDS011;65035;44.726;37.764;2023-03-01T04:49:52;14.80;;;5.55;;
75798;SDS011;65035;44.726;37.764;2023-03-01T04:51:00;12.30;;;4.82;;
75798;SDS011;65035;44.726;37.764;2023-03-01T04:52:06;10.60;;;4.70;;
75798;SDS011;65035;44.726;37.764;2023-03-01T04:53:09;13.13;;;5.40;;
75798;SDS011;65035;44.726;37.764;2023-03-01T04:54:12;8.50;;;4.60;;
75798;SDS011;65035;44.726;37.764;2023-03-01T04:55:15;12.02;;;5.05;;
75798;SDS011;65035;44.726;37.764;2023-03-01T04:56:19;9.93;;;5.07;;
75798;SDS011;65035;44.726;37.764;2023-03-01T04:57:23;9.02;;;4.68;;
75798;SDS011;65035;44.726;37.764;2023-03-01T04:58:28;9.73;;;5.22;;
75798;SDS011;65035;44.726;37.764;2023-03-01T04:59:31;9.05;;;3.40;;
75798;SDS011;65035;44.726;37.764;2023-03-01T05:00:35;8.48;;;4.20;;
75798;SDS011;65035;44.726;37.764;2023-03-01T05:01:39;10.18;;;4.07;;
75798;SDS011;65035;44.726;37.764;2023-03-01T05:02:46;10.45;;;4.47;;
75798;SDS011;65035;44.726;37.764;2023-03-01T05:03:51;11.05;;;5.22;;
75798;SDS011;65035;44.726;37.764;2023-03-01T05:04:56;8.40;;;4.82;;
75798;SDS011;65035;44.726;37.764;2023-03-01T05:06:01;6.72;;;4.18;;
75798;SDS011;65035;44.726;37.764;2023-03-01T05:07:06;8.88;;;4.72;;
75798;SDS011;65035;44.726;37.764;2023-03-01T05:08:11;8.73;;;4.47;;
75798;SDS011;65035;44.726;37.764;2023-03-01T05:09:19;10.30;;;5.47;;
75798;SDS011;65035;44.726;37.764;2023-03-01T05:10:25;10.38;;;4.97;;
75798;SDS011;65035;44.726;37.764;2023-03-01T05:11:29;8.43;;;4.68;;
75798;SDS011;65035;44.726;37.764;2023-03-01T05:12:38;9.15;;;4.97;;
75798;SDS011;65035;44.726;37.764;2023-03-01T05:13:42;7.05;;;4.22;;
75798;SDS011;65035;44.726;37.764;2023-03-01T05:14:45;8.60;;;4.90;;
75798;SDS011;65035;44.726;37.764;2023-03-01T05:15:54;7.78;;;4.00;;
75798;SDS011;65035;44.726;37.764;2023-03-01T05:17:01;8.75;;;3.88;;
75798;SDS011;65035;44.726;37.764;2023-03-01T05:18:07;7.72;;;4.40;;
75798;SDS011;65035;44.726;37.764;2023-03-01T05:19:15;9.02;;;4.85;;
75798;SDS011;65035;44.726;37.764;2023-03-01T05:20:20;6.20;;;4.35;;
75798;SDS011;65035;44.726;37.764;2023-03-01T05:21:27;7.00;;;4.97;;
75798;SDS011;65035;44.726;37.764;2023-03-01T05:22:30;7.45;;;4.55;;
75798;SDS011;65035;44.726;37.764;2023-03-01T05:23:34;7.80;;;3.75;;
75798;SDS011;65035;44.726;37.764;2023-03-01T05:24:40;6.38;;;4.05;;
75798;SDS011;65035;44.726;37.764;2023-03-01T05:25:45;7.57;;;3.72;;
75798;SDS011;65035;44.726;37.764;2023-03-01T05:26:48;7.35;;;3.97;;
75798;SDS011;65035;44.726;37.764;2023-03-01T05:27:54;5.90;;;4.28;;
75798;SDS011;65035;44.726;37.764;2023-03-01T05:28:58;5.50;;;4.18;;
75798;SDS011;65035;44.726;37.764;2023-03-01T05:30:04;6.45;;;4.55;;
75798;SDS011;65035;44.726;37.764;2023-03-01T05:31:16;6.82;;;4.00;;
75798;SDS011;65035;44.726;37.764;2023-03-01T05:32:20;6.35;;;4.95;;
75798;SDS011;65035;44.726;37.764;2023-03-01T05:33:25;7.82;;;4.45;;
75798;SDS011;65035;44.726;37.764;2023-03-01T05:34:34;7.30;;;4.70;;
75798;SDS011;65035;44.726;37.764;2023-03-01T05:35:39;8.98;;;4.45;;
75798;SDS011;65035;44.726;37.764;2023-03-01T05:36:46;6.20;;;4.30;;
75798;SDS011;65035;44.726;37.764;2023-03-01T05:37:50;4.97;;;4.47;;
75798;SDS011;65035;44.726;37.764;2023-03-01T05:38:55;7.65;;;3.83;;
75798;SDS011;65035;44.726;37.764;2023-03-01T05:39:59;7.28;;;3.72;;
75798;SDS011;65035;44.726;37.764;2023-03-01T05:41:03;6.25;;;3.70;;
75798;SDS011;65035;44.726;37.764;2023-03-01T05:42:10;5.13;;;3.63;;
75798;SDS011;65035;44.726;37.764;2023-03-01T05:43:14;5.97;;;3.70;;
75798;SDS011;65035;44.726;37.764;2023-03-01T05:44:19;7.10;;;4.18;;
75798;SDS011;65035;44.726;37.764;2023-03-01T05:45:24;5.07;;;4.57;;
75798;SDS011;65035;44.726;37.764;2023-03-01T05:46:29;7.93;;;4.55;;
75798;SDS011;65035;44.726;37.764;2023-03-01T05:47:34;4.95;;;3.60;;
75798;SDS011;65035;44.726;37.764;2023-03-01T05:48:39;5.15;;;4.15;;
75798;SDS011;65035;44.726;37.764;2023-03-01T05:49:42;5.80;;;3.97;;
75798;SDS011;65035;44.726;37.764;2023-03-01T05:50:48;5.95;;;3.40;;
75798;SDS011;65035;44.726;37.764;2023-03-01T05:51:52;6.82;;;3.92;;
75798;SDS011;65035;44.726;37.764;2023-03-01T05:53:01;5.85;;;3.95;;
75798;SDS011;65035;44.726;37.764;2023-03-01T05:54:05;5.30;;;4.18;;
75798;SDS011;65035;44.726;37.764;2023-03-01T05:55:10;6.13;;;4.05;;
75798;SDS011;65035;44.726;37.764;2023-03-01T05:56:16;5.07;;;2.10;;
75798;SDS011;65035;44.726;37.764;2023-03-01T05:57:19;5.72;;;3.83;;
75798;SDS011;65035;44.726;37.764;2023-03-01T05:58:24;4.95;;;3.47;;
75798;SDS011;65035;44.726;37.764;2023-03-01T05:59:28;5.25;;;4.47;;
75798;SDS011;65035;44.726;37.764;2023-03-01T06:00:32;4.72;;;4.15;;
75798;SDS011;65035;44.726;37.764;2023-03-01T06:01:39;7.18;;;4.00;;
75798;SDS011;65035;44.726;37.764;2023-03-01T06:02:44;5.40;;;4.20;;
75798;SDS011;65035;44.726;37.764;2023-03-01T06:03:49;5.85;;;3.33;;
75798;SDS011;65035;44.726;37.764;2023-03-01T06:04:54;4.80;;;3.70;;
75798;SDS011;65035;44.726;37.764;2023-03-01T06:05:59;6.47;;;3.92;;
75798;SDS011;65035;44.726;37.764;2023-03-01T06:07:04;4.97;;;4.38;;
75798;SDS011;65035;44.726;37.764;2023-03-01T06:08:08;5.72;;;4.20;;
75798;SDS011;65035;44.726;37.764;2023-03-01T06:09:14;4.88;;;3.15;;
75798;SDS011;65035;44.726;37.764;2023-03-01T06:10:17;5.30;;;4.03;;
75798;SDS011;65035;44.726;37.764;2023-03-01T06:11:22;5.30;;;3.30;;
75798;SDS011;65035;44.726;37.764;2023-03-01T06:12:27;4.70;;;4.03;;
75798;SDS011;65035;44.726;37.764;2023-03-01T06:13:34;4.72;;;3.58;;
75798;SDS011;65035;44.726;37.764;2023-03-01T06:14:38;4.47;;;3.60;;
75798;SDS011;65035;44.726;37.764;2023-03-01T06:15:42;5.13;;;3.67;;
75798;SDS011;65035;44.726;37.764;2023-03-01T06:16:46;5.22;;;3.70;;
75798;SDS011;65035;44.726;37.764;2023-03-01T06:17:50;5.68;;;3.38;;
75798;SDS011;65035;44.726;37.764;2023-03-01T06:18:59;4.97;;;3.88;;
75798;SDS011;65035;44.726;37.764;2023-03-01T06:20:05;5.05;;;4.03;;
75798;SDS011;65035;44.726;37.764;2023-03-01T06:21:13;6.55;;;3.67;;
75798;SDS011;65035;44.726;37.764;2023-03-01T06:22:18;3.15;;;1.60;;
75798;SDS011;65035;44.726;37.764;2023-03-01T06:23:22;5.40;;;4.22;;
75798;SDS011;65035;44.726;37.764;2023-03-01T06:24:26;3.22;;;2.08;;
75798;SDS011;65035;44.726;37.764;2023-03-01T06:25:32;4.90;;;4.43;;
75798;SDS011;65035;44.726;37.764;2023-03-01T06:26:37;3.72;;;3.25;;
75798;SDS011;65035;44.726;37.764;2023-03-01T06:27:40;4.85;;;3.88;;
75798;SDS011;65035;44.726;37.764;2023-03-01T06:28:45;5.05;;;3.83;;
75798;SDS011;65035;44.726;37.764;2023-03-01T06:29:48;4.72;;;3.63;;
75798;SDS011;65035;44.726;37.764;2023-03-01T06:30:51;5.20;;;3.92;;
75798;SDS011;65035;44.726;37.764;2023-03-01T06:32:58;4.30;;;3.70;;
75798;SDS011;65035;44.726;37.764;2023-03-01T06:34:04;4.82;;;3.80;;
75798;SDS011;65035;44.726;37.764;2023-03-01T06:35:07;3.97;;;3.30;;
75798;SDS011;65035;44.726;37.764;2023-03-01T06:36:14;4.00;;;2.15;;
75798;SDS011;65035;44.726;37.764;2023-03-01T06:37:18;4.13;;;3.42;;
75798;SDS011;65035;44.726;37.764;2023-03-01T06:38:21;4.32;;;3.88;;
75798;SDS011;65035;44.726;37.764;2023-03-01T06:40:29;5.25;;;3.40;;
75798;SDS011;65035;44.726;37.764;2023-03-01T06:41:39;5.55;;;3.28;;
75798;SDS011;65035;44.726;37.764;2023-03-01T06:42:43;4.47;;;4.07;;
75798;SDS011;65035;44.726;37.764;2023-03-01T06:43:53;4.97;;;2.03;;
75798;SDS011;65035;44.726;37.764;2023-03-01T06:44:57;4.55;;;3.50;;
75798;SDS011;65035;44.726;37.764;2023-03-01T06:46:03;4.70;;;3.83;;